sensor_id;sensor_type;location;lat;lon;timestamp;pressure;altitude;pressure_sealevel;temperature;humidity
32761;BME280;19126;47.472;7.850;2022-10-16T00:01:17;96572.59;;;11.47;9.91
32761;BME280;19126;47.472;7.850;2022-10-16T00:03:45;96560.72;;;11.51;10.24
32761;BME280;19126;47.472;7.850;2022-10-16T00:06:14;96569.25;;;11.68;10.36
32761;BME280;19126;47.472;7.850;2022-10-16T00:08:42;96567.50;;;11.75;10.73
32761;BME280;19126;47.472;7.850;2022-10-16T00:11:14;96559.88;;;11.80;11.07
32761;BME280;19126;47.472;7.850;2022-10-16T00:13:44;96572.94;;;11.88;10.70
32761;BME280;19126;47.472;7.850;2022-10-16T00:16:12;96566.84;;;11.88;10.51
32761;BME280;19126;47.472;7.850;2022-10-16T00:18:40;96570.59;;;11.94;10.91
32761;BME280;19126;47.472;7.850;2022-10-16T00:21:11;96563.78;;;11.99;11.06
32761;BME280;19126;47.472;7.850;2022-10-16T00:23:39;96563.88;;;12.06;10.74
32761;BME280;19126;47.472;7.850;2022-10-16T00:26:10;96559.19;;;12.01;11.25
32761;BME280;19126;47.472;7.850;2022-10-16T00:28:39;96572.34;;;12.01;11.33
32761;BME280;19126;47.472;7.850;2022-10-16T00:31:09;96560.19;;;12.00;11.66
32761;BME280;19126;47.472;7.850;2022-10-16T00:33:38;96561.31;;;11.98;11.51
32761;BME280;19126;47.472;7.850;2022-10-16T00:36:08;96559.06;;;11.95;11.53
32761;BME280;19126;47.472;7.850;2022-10-16T00:38:36;96559.25;;;11.93;11.38
32761;BME280;19126;47.472;7.850;2022-10-16T00:41:05;96570.94;;;11.91;11.56
32761;BME280;19126;47.472;7.850;2022-10-16T00:43:40;96568.69;;;11.87;11.71
32761;BME280;19126;47.472;7.850;2022-10-16T00:46:15;96564.22;;;11.88;11.33
32761;BME280;19126;47.472;7.850;2022-10-16T00:48:48;96574.38;;;11.91;11.90
32761;BME280;19126;47.472;7.850;2022-10-16T00:51:21;96572.31;;;11.86;11.36
32761;BME280;19126;47.472;7.850;2022-10-16T00:53:50;96578.38;;;11.87;11.59
32761;BME280;19126;47.472;7.850;2022-10-16T00:56:18;96571.31;;;11.87;11.50
32761;BME280;19126;47.472;7.850;2022-10-16T00:58:47;96572.31;;;11.86;11.70
32761;BME280;19126;47.472;7.850;2022-10-16T01:01:14;96588.91;;;11.87;11.44
32761;BME280;19126;47.472;7.850;2022-10-16T01:03:41;96587.75;;;11.90;11.63
32761;BME280;19126;47.472;7.850;2022-10-16T01:06:24;96589.84;;;11.94;11.13
32761;BME280;19126;47.472;7.850;2022-10-16T01:09:09;96597.38;;;11.97;11.21
32761;BME280;19126;47.472;7.850;2022-10-16T01:11:48;96588.56;;;12.05;11.91
32761;BME280;19126;47.472;7.850;2022-10-16T01:14:39;96579.56;;;12.14;11.15
32761;BME280;19126;47.472;7.850;2022-10-16T01:17:12;96589.56;;;12.19;11.89
32761;BME280;19126;47.472;7.850;2022-10-16T01:20:06;96583.44;;;12.19;11.64
32761;BME280;19126;47.472;7.850;2022-10-16T01:22:50;96570.75;;;12.22;12.11
32761;BME280;19126;47.472;7.850;2022-10-16T01:25:33;96576.66;;;12.24;11.55
32761;BME280;19126;47.472;7.850;2022-10-16T01:28:06;96587.97;;;12.25;12.10
32761;BME280;19126;47.472;7.850;2022-10-16T01:30:38;96589.19;;;12.22;12.21
32761;BME280;19126;47.472;7.850;2022-10-16T01:33:12;96599.25;;;12.19;12.19
32761;BME280;19126;47.472;7.850;2022-10-16T01:35:45;96586.66;;;12.14;11.99
32761;BME280;19126;47.472;7.850;2022-10-16T01:38:19;96586.66;;;12.14;11.88
32761;BME280;19126;47.472;7.850;2022-10-16T01:40:53;96582.94;;;12.08;12.04
32761;BME280;19126;47.472;7.850;2022-10-16T01:43:31;96585.31;;;12.03;11.98
32761;BME280;19126;47.472;7.850;2022-10-16T01:46:01;96590.56;;;12.03;11.63
32761;BME280;19126;47.472;7.850;2022-10-16T01:48:29;96587.31;;;12.01;11.32
32761;BME280;19126;47.472;7.850;2022-10-16T01:51:03;96587.31;;;12.01;11.20
32761;BME280;19126;47.472;7.850;2022-10-16T01:53:32;96586.63;;;11.99;11.74
32761;BME280;19126;47.472;7.850;2022-10-16T01:56:01;96580.31;;;11.93;11.44
32761;BME280;19126;47.472;7.850;2022-10-16T01:58:34;96577.84;;;11.92;11.60
32761;BME280;19126;47.472;7.850;2022-10-16T02:01:04;96588.09;;;11.86;11.62
32761;BME280;19126;47.472;7.850;2022-10-16T02:03:35;96594.09;;;11.80;11.35
32761;BME280;19126;47.472;7.850;2022-10-16T02:06:11;96584.66;;;11.71;10.75
32761;BME280;19126;47.472;7.850;2022-10-16T02:08:39;96580.31;;;11.63;10.88
32761;BME280;19126;47.472;7.850;2022-10-16T02:11:10;96573.97;;;11.57;10.80
32761;BME280;19126;47.472;7.850;2022-10-16T02:13:43;96570.06;;;11.53;10.94
32761;BME280;19126;47.472;7.850;2022-10-16T02:16:13;96582.38;;;11.53;11.15
32761;BME280;19126;47.472;7.850;2022-10-16T02:18:41;96592.09;;;11.52;10.90
32761;BME280;19126;47.472;7.850;2022-10-16T02:21:15;96585.09;;;11.44;10.77
32761;BME280;19126;47.472;7.850;2022-10-16T02:23:49;96584.03;;;11.39;11.13
32761;BME280;19126;47.472;7.850;2022-10-16T02:26:26;96586.03;;;11.37;10.85
32761;BME280;19126;47.472;7.850;2022-10-16T02:29:02;96587.19;;;11.34;11.17
32761;BME280;19126;47.472;7.850;2022-10-16T02:31:35;96583.84;;;11.25;10.82
32761;BME280;19126;47.472;7.850;2022-10-16T02:34:04;96584.81;;;11.24;10.79
32761;BME280;19126;47.472;7.850;2022-10-16T02:36:33;96578.47;;;11.19;10.73
32761;BME280;19126;47.472;7.850;2022-10-16T02:39:03;96592.16;;;11.14;11.23
32761;BME280;19126;47.472;7.850;2022-10-16T02:41:31;96593.78;;;11.15;10.73
32761;BME280;19126;47.472;7.850;2022-10-16T02:44:00;96590.31;;;11.14;10.32
32761;BME280;19126;47.472;7.850;2022-10-16T02:46:28;96590.16;;;11.16;10.90
32761;BME280;19126;47.472;7.850;2022-10-16T02:48:55;96593.94;;;11.13;10.63
32761;BME280;19126;47.472;7.850;2022-10-16T02:51:22;96602.03;;;11.12;10.67
32761;BME280;19126;47.472;7.850;2022-10-16T02:53:50;96596.13;;;11.10;10.59
32761;BME280;19126;47.472;7.850;2022-10-16T02:56:17;96602.38;;;11.09;10.54
32761;BME280;19126;47.472;7.850;2022-10-16T02:58:44;96597.94;;;11.09;10.79
32761;BME280;19126;47.472;7.850;2022-10-16T03:01:13;96611.56;;;11.13;10.67
32761;BME280;19126;47.472;7.850;2022-10-16T03:03:42;96613.34;;;11.12;10.51
32761;BME280;19126;47.472;7.850;2022-10-16T03:06:09;96616.81;;;11.13;10.55
32761;BME280;19126;47.472;7.850;2022-10-16T03:08:36;96609.91;;;11.12;10.54
32761;BME280;19126;47.472;7.850;2022-10-16T03:11:04;96602.66;;;11.14;10.80
32761;BME280;19126;47.472;7.850;2022-10-16T03:13:31;96607.94;;;11.14;10.90
32761;BME280;19126;47.472;7.850;2022-10-16T03:15:58;96605.94;;;11.16;10.73
32761;BME280;19126;47.472;7.850;2022-10-16T03:18:27;96613.00;;;11.16;10.83
32761;BME280;19126;47.472;7.850;2022-10-16T03:20:55;96610.19;;;11.17;10.79
32761;BME280;19126;47.472;7.850;2022-10-16T03:23:22;96612.47;;;11.20;10.97
32761;BME280;19126;47.472;7.850;2022-10-16T03:25:49;96605.03;;;11.24;10.81
32761;BME280;19126;47.472;7.850;2022-10-16T03:28:16;96612.75;;;11.25;10.84
32761;BME280;19126;47.472;7.850;2022-10-16T03:30:43;96605.22;;;11.22;10.93
32761;BME280;19126;47.472;7.850;2022-10-16T03:33:11;96612.28;;;11.22;10.62
32761;BME280;19126;47.472;7.850;2022-10-16T03:35:39;96616.38;;;11.24;10.71
32761;BME280;19126;47.472;7.850;2022-10-16T03:38:06;96618.00;;;11.25;11.10
32761;BME280;19126;47.472;7.850;2022-10-16T03:40:34;96619.66;;;11.26;10.61
32761;BME280;19126;47.472;7.850;2022-10-16T03:43:01;96616.03;;;11.27;10.56
32761;BME280;19126;47.472;7.850;2022-10-16T03:45:28;96618.47;;;11.29;10.84
32761;BME280;19126;47.472;7.850;2022-10-16T03:47:55;96623.56;;;11.31;10.94
32761;BME280;19126;47.472;7.850;2022-10-16T03:50:22;96615.03;;;11.28;10.90
32761;BME280;19126;47.472;7.850;2022-10-16T03:52:51;96617.03;;;11.26;10.63
32761;BME280;19126;47.472;7.850;2022-10-16T03:55:18;96610.41;;;11.31;10.76
32761;BME280;19126;47.472;7.850;2022-10-16T03:57:45;96616.66;;;11.29;11.04
32761;BME280;19126;47.472;7.850;2022-10-16T04:00:13;96614.66;;;11.32;10.69
32761;BME280;19126;47.472;7.850;2022-10-16T04:02:42;96612.03;;;11.32;11.17
32761;BME280;19126;47.472;7.850;2022-10-16T04:05:09;96618.94;;;11.33;11.01
32761;BME280;19126;47.472;7.850;2022-10-16T04:07:36;96618.09;;;11.32;11.26
32761;BME280;19126;47.472;7.850;2022-10-16T04:10:06;96620.72;;;11.32;11.20
32761;BME280;19126;47.472;7.850;2022-10-16T04:12:34;96619.09;;;11.31;11.39
32761;BME280;19126;47.472;7.850;2022-10-16T04:15:01;96615.03;;;11.28;11.19
32761;BME280;19126;47.472;7.850;2022-10-16T04:17:28;96621.09;;;11.29;11.36
32761;BME280;19126;47.472;7.850;2022-10-16T04:19:55;96626.00;;;11.32;10.95
32761;BME280;19126;47.472;7.850;2022-10-16T04:22:23;96624.56;;;11.29;11.51
32761;BME280;19126;47.472;7.850;2022-10-16T04:24:50;96626.19;;;11.31;11.12
32761;BME280;19126;47.472;7.850;2022-10-16T04:27:18;96623.72;;;11.29;11.32
32761;BME280;19126;47.472;7.850;2022-10-16T04:29:46;96618.47;;;11.29;11.22
32761;BME280;19126;47.472;7.850;2022-10-16T04:32:13;96621.44;;;11.26;11.30
32761;BME280;19126;47.472;7.850;2022-10-16T04:34:40;96619.66;;;11.26;11.06
32761;BME280;19126;47.472;7.850;2022-10-16T04:37:07;96618.81;;;11.26;11.75
32761;BME280;19126;47.472;7.850;2022-10-16T04:39:35;96613.75;;;11.24;10.98
32761;BME280;19126;47.472;7.850;2022-10-16T04:42:02;96624.28;;;11.24;11.13
32761;BME280;19126;47.472;7.850;2022-10-16T04:44:30;96622.63;;;11.23;11.19
32761;BME280;19126;47.472;7.850;2022-10-16T04:46:58;96623.00;;;11.20;11.25
32761;BME280;19126;47.472;7.850;2022-10-16T04:49:25;96619.53;;;11.20;11.28
32761;BME280;19126;47.472;7.850;2022-10-16T04:51:52;96629.06;;;11.21;11.40
32761;BME280;19126;47.472;7.850;2022-10-16T04:54:19;96616.91;;;11.20;11.55
32761;BME280;19126;47.472;7.850;2022-10-16T04:56:47;96616.75;;;11.21;11.36
32761;BME280;19126;47.472;7.850;2022-10-16T04:59:16;96616.53;;;11.23;10.95
32761;BME280;19126;47.472;7.850;2022-10-16T05:01:45;96618.38;;;11.22;11.12
32761;BME280;19126;47.472;7.850;2022-10-16T05:04:13;96617.53;;;11.22;11.67
32761;BME280;19126;47.472;7.850;2022-10-16T05:06:41;96617.19;;;11.25;11.83
32761;BME280;19126;47.472;7.850;2022-10-16T05:09:09;96617.03;;;11.26;11.40
32761;BME280;19126;47.472;7.850;2022-10-16T05:11:36;96625.91;;;11.25;11.14
32761;BME280;19126;47.472;7.850;2022-10-16T05:14:04;96622.09;;;11.28;11.46
32761;BME280;19126;47.472;7.850;2022-10-16T05:16:31;96623.56;;;11.31;11.54
32761;BME280;19126;47.472;7.850;2022-10-16T05:19:00;96626.00;;;11.32;11.39
32761;BME280;19126;47.472;7.850;2022-10-16T05:21:27;96626.19;;;11.31;11.63
32761;BME280;19126;47.472;7.850;2022-10-16T05:23:54;96618.09;;;11.32;11.75
32761;BME280;19126;47.472;7.850;2022-10-16T05:26:21;96622.56;;;11.32;11.65
32761;BME280;19126;47.472;7.850;2022-10-16T05:28:49;96618.09;;;11.32;11.82
32761;BME280;19126;47.472;7.850;2022-10-16T05:31:17;96613.47;;;11.34;11.51
32761;BME280;19126;47.472;7.850;2022-10-16T05:33:44;96618.22;;;11.39;11.28
32761;BME280;19126;47.472;7.850;2022-10-16T05:36:12;96614.59;;;11.40;11.51
32761;BME280;19126;47.472;7.850;2022-10-16T05:38:40;96621.66;;;11.39;11.45
32761;BME280;19126;47.472;7.850;2022-10-16T05:41:07;96622.28;;;11.41;12.33
32761;BME280;19126;47.472;7.850;2022-10-16T05:43:34;96627.56;;;11.41;11.89
32761;BME280;19126;47.472;7.850;2022-10-16T05:46:04;96622.13;;;11.43;11.55
32761;BME280;19126;47.472;7.850;2022-10-16T05:48:32;96630.19;;;11.41;11.58
32761;BME280;19126;47.472;7.850;2022-10-16T05:51:02;96632.16;;;11.39;11.76
32761;BME280;19126;47.472;7.850;2022-10-16T05:53:34;96634.28;;;11.44;11.85
32761;BME280;19126;47.472;7.850;2022-10-16T05:56:03;96637.56;;;11.46;11.91
32761;BME280;19126;47.472;7.850;2022-10-16T05:58:33;96638.19;;;11.48;11.92
32761;BME280;19126;47.472;7.850;2022-10-16T06:01:03;96641.81;;;11.47;12.10
32761;BME280;19126;47.472;7.850;2022-10-16T06:03:31;96644.88;;;11.51;11.63
32761;BME280;19126;47.472;7.850;2022-10-16T06:05:58;96643.72;;;11.53;11.84
32761;BME280;19126;47.472;7.850;2022-10-16T06:08:25;96655.06;;;11.54;11.35
32761;BME280;19126;47.472;7.850;2022-10-16T06:11:02;96657.03;;;11.52;11.58
32761;BME280;19126;47.472;7.850;2022-10-16T06:13:30;96664.94;;;11.52;11.77
32761;BME280;19126;47.472;7.850;2022-10-16T06:15:58;96664.56;;;11.55;11.63
32761;BME280;19126;47.472;7.850;2022-10-16T06:18:26;96657.53;;;11.55;11.67
32761;BME280;19126;47.472;7.850;2022-10-16T06:20:54;96661.22;;;11.61;11.68
32761;BME280;19126;47.472;7.850;2022-10-16T06:23:21;96670.59;;;11.64;11.64
32761;BME280;19126;47.472;7.850;2022-10-16T06:25:50;96666.97;;;11.65;11.64
32761;BME280;19126;47.472;7.850;2022-10-16T06:28:18;96674.84;;;11.65;12.07
32761;BME280;19126;47.472;7.850;2022-10-16T06:30:46;96676.78;;;11.71;11.64
32761;BME280;19126;47.472;7.850;2022-10-16T06:33:13;96675.94;;;11.70;11.58
32761;BME280;19126;47.472;7.850;2022-10-16T06:35:40;96676.56;;;11.72;11.14
32761;BME280;19126;47.472;7.850;2022-10-16T06:38:08;96688.56;;;11.75;11.37
32761;BME280;19126;47.472;7.850;2022-10-16T06:40:35;96685.56;;;11.78;12.09
32761;BME280;19126;47.472;7.850;2022-10-16T06:43:02;96690.94;;;11.85;11.28
32761;BME280;19126;47.472;7.850;2022-10-16T06:45:31;96694.84;;;11.89;11.24
32761;BME280;19126;47.472;7.850;2022-10-16T06:47:58;96705.09;;;11.99;11.48
32761;BME280;19126;47.472;7.850;2022-10-16T06:50:25;96700.97;;;12.05;11.16
32761;BME280;19126;47.472;7.850;2022-10-16T06:52:52;96710.69;;;12.19;11.85
32761;BME280;19126;47.472;7.850;2022-10-16T06:55:19;96714.22;;;12.26;11.20
32761;BME280;19126;47.472;7.850;2022-10-16T06:57:47;96719.84;;;12.38;12.24
32761;BME280;19126;47.472;7.850;2022-10-16T07:00:15;96724.69;;;12.71;11.77
32761;BME280;19126;47.472;7.850;2022-10-16T07:02:44;96734.75;;;13.19;11.27
32761;BME280;19126;47.472;7.850;2022-10-16T07:05:11;96735.88;;;13.75;12.71
32761;BME280;19126;47.472;7.850;2022-10-16T07:07:38;96735.66;;;13.99;12.43
32761;BME280;19126;47.472;7.850;2022-10-16T07:10:06;96740.84;;;14.20;12.23
32761;BME280;19126;47.472;7.850;2022-10-16T07:12:33;96739.44;;;14.60;11.63
32761;BME280;19126;47.472;7.850;2022-10-16T07:15:01;96748.78;;;15.04;11.41
32761;BME280;19126;47.472;7.850;2022-10-16T07:17:28;96742.31;;;15.27;10.92
32761;BME280;19126;47.472;7.850;2022-10-16T07:19:56;96746.03;;;15.60;10.45
32761;BME280;19126;47.472;7.850;2022-10-16T07:22:23;96746.41;;;15.77;9.65
32761;BME280;19126;47.472;7.850;2022-10-16T07:24:51;96745.22;;;16.13;10.25
32761;BME280;19126;47.472;7.850;2022-10-16T07:27:18;96756.56;;;16.47;15.50
32761;BME280;19126;47.472;7.850;2022-10-16T07:29:48;96752.97;;;16.74;42.68
32761;BME280;19126;47.472;7.850;2022-10-16T07:32:15;96754.09;;;17.05;69.72
32761;BME280;19126;47.472;7.850;2022-10-16T07:34:42;96756.75;;;17.43;84.80
32761;BME280;19126;47.472;7.850;2022-10-16T07:37:11;96760.31;;;17.31;100.00
32761;BME280;19126;47.472;7.850;2022-10-16T07:39:38;96766.03;;;17.60;100.00
32761;BME280;19126;47.472;7.850;2022-10-16T07:42:05;96767.66;;;17.86;100.00
32761;BME280;19126;47.472;7.850;2022-10-16T07:44:33;96778.16;;;18.06;100.00
32761;BME280;19126;47.472;7.850;2022-10-16T07:47:00;96776.28;;;18.32;100.00
32761;BME280;19126;47.472;7.850;2022-10-16T07:49:28;96775.63;;;18.37;100.00
32761;BME280;19126;47.472;7.850;2022-10-16T07:51:56;96785.78;;;18.65;100.00
32761;BME280;19126;47.472;7.850;2022-10-16T07:54:24;96777.72;;;18.72;100.00
32761;BME280;19126;47.472;7.850;2022-10-16T07:56:51;96782.75;;;18.80;100.00
32761;BME280;19126;47.472;7.850;2022-10-16T07:59:19;96788.88;;;18.81;100.00
32761;BME280;19126;47.472;7.850;2022-10-16T08:01:46;96795.66;;;18.95;100.00
32761;BME280;19126;47.472;7.850;2022-10-16T08:04:13;96785.63;;;18.97;100.00
32761;BME280;19126;47.472;7.850;2022-10-16T08:06:41;96789.03;;;19.04;100.00
32761;BME280;19126;47.472;7.850;2022-10-16T08:09:08;96791.81;;;19.10;100.00
32761;BME280;19126;47.472;7.850;2022-10-16T08:11:37;96793.72;;;19.21;100.00
32761;BME280;19126;47.472;7.850;2022-10-16T08:14:04;96794.63;;;18.96;100.00
32761;BME280;19126;47.472;7.850;2022-10-16T08:16:32;96795.06;;;19.12;100.00
32761;BME280;19126;47.472;7.850;2022-10-16T08:18:59;96798.53;;;19.31;100.00
32761;BME280;19126;47.472;7.850;2022-10-16T08:21:26;96800.13;;;19.01;100.00
32761;BME280;19126;47.472;7.850;2022-10-16T08:23:54;96804.75;;;19.25;100.00
32761;BME280;19126;47.472;7.850;2022-10-16T08:26:21;96804.91;;;19.42;100.00
32761;BME280;19126;47.472;7.850;2022-10-16T08:28:51;96803.16;;;19.66;100.00
32761;BME280;19126;47.472;7.850;2022-10-16T08:31:18;96807.00;;;20.25;100.00
32761;BME280;19126;47.472;7.850;2022-10-16T08:33:46;96812.31;;;20.48;100.00
32761;BME280;19126;47.472;7.850;2022-10-16T08:36:15;96807.25;;;21.00;100.00
32761;BME280;19126;47.472;7.850;2022-10-16T08:38:43;96811.66;;;21.06;100.00
32761;BME280;19126;47.472;7.850;2022-10-16T08:44:41;96811.50;;;21.25;97.45
32761;BME280;19126;47.472;7.850;2022-10-16T08:47:17;96818.22;;;21.27;100.00
32761;BME280;19126;47.472;7.850;2022-10-16T08:49:57;96815.25;;;21.00;92.62
32761;BME280;19126;47.472;7.850;2022-10-16T08:52:30;96818.50;;;21.14;94.83
32761;BME280;19126;47.472;7.850;2022-10-16T08:55:01;96820.00;;;21.10;89.88
32761;BME280;19126;47.472;7.850;2022-10-16T08:57:29;96816.47;;;21.33;93.15
32761;BME280;19126;47.472;7.850;2022-10-16T09:00:12;96817.72;;;21.42;91.79
32761;BME280;19126;47.472;7.850;2022-10-16T09:02:50;96822.50;;;21.69;89.20
32761;BME280;19126;47.472;7.850;2022-10-16T09:05:45;96816.00;;;22.16;89.56
32761;BME280;19126;47.472;7.850;2022-10-16T09:08:24;96826.22;;;22.19;85.04
32761;BME280;19126;47.472;7.850;2022-10-16T09:10:57;96831.81;;;22.69;86.67
32761;BME280;19126;47.472;7.850;2022-10-16T09:13:31;96834.66;;;22.45;84.28
32761;BME280;19126;47.472;7.850;2022-10-16T09:16:14;96835.69;;;22.78;82.11
32761;BME280;19126;47.472;7.850;2022-10-16T09:18:51;96837.81;;;22.42;84.57
32761;BME280;19126;47.472;7.850;2022-10-16T09:21:23;96832.38;;;22.37;84.50
32761;BME280;19126;47.472;7.850;2022-10-16T09:23:51;96827.59;;;22.05;85.36
32761;BME280;19126;47.472;7.850;2022-10-16T09:26:20;96826.78;;;21.87;86.53
32761;BME280;19126;47.472;7.850;2022-10-16T09:28:48;96832.00;;;21.94;90.71
32761;BME280;19126;47.472;7.850;2022-10-16T09:31:21;96835.88;;;22.03;85.17
32761;BME280;19126;47.472;7.850;2022-10-16T09:33:52;96838.63;;;22.43;87.98
32761;BME280;19126;47.472;7.850;2022-10-16T09:36:21;96840.34;;;22.88;91.18
32761;BME280;19126;47.472;7.850;2022-10-16T09:38:50;96836.19;;;22.75;83.67
32761;BME280;19126;47.472;7.850;2022-10-16T09:41:28;96838.13;;;23.02;81.82
32761;BME280;19126;47.472;7.850;2022-10-16T09:43:57;96846.97;;;22.80;79.51
32761;BME280;19126;47.472;7.850;2022-10-16T09:46:29;96842.94;;;22.44;83.99
32761;BME280;19126;47.472;7.850;2022-10-16T09:49:05;96833.38;;;22.87;85.53
32761;BME280;19126;47.472;7.850;2022-10-16T09:51:46;96835.56;;;23.35;85.46
32761;BME280;19126;47.472;7.850;2022-10-16T09:54:16;96833.91;;;23.29;81.87
32761;BME280;19126;47.472;7.850;2022-10-16T09:56:43;96841.81;;;23.68;83.89
32761;BME280;19126;47.472;7.850;2022-10-16T09:59:17;96839.53;;;23.82;83.87
32761;BME280;19126;47.472;7.850;2022-10-16T10:01:48;96848.09;;;24.06;78.31
32761;BME280;19126;47.472;7.850;2022-10-16T10:04:17;96849.91;;;23.73;79.96
32761;BME280;19126;47.472;7.850;2022-10-16T10:06:47;96856.38;;;23.77;79.61
32761;BME280;19126;47.472;7.850;2022-10-16T10:09:21;96844.78;;;23.99;77.07
32761;BME280;19126;47.472;7.850;2022-10-16T10:11:53;96845.66;;;23.77;70.27
32761;BME280;19126;47.472;7.850;2022-10-16T10:14:31;96833.94;;;23.56;71.66
32761;BME280;19126;47.472;7.850;2022-10-16T10:17:12;96846.78;;;23.32;69.72
32761;BME280;19126;47.472;7.850;2022-10-16T10:19:42;96841.09;;;23.06;70.90
32761;BME280;19126;47.472;7.850;2022-10-16T10:22:40;96843.31;;;23.31;74.56
32761;BME280;19126;47.472;7.850;2022-10-16T10:25:42;96844.78;;;23.44;73.68
32761;BME280;19126;47.472;7.850;2022-10-16T10:28:25;96847.34;;;23.34;71.31
32761;BME280;19126;47.472;7.850;2022-10-16T10:31:02;96847.09;;;23.13;73.00
32761;BME280;19126;47.472;7.850;2022-10-16T10:33:41;96840.31;;;23.27;72.42
32761;BME280;19126;47.472;7.850;2022-10-16T10:36:29;96838.00;;;23.36;70.75
32761;BME280;19126;47.472;7.850;2022-10-16T10:38:59;96846.41;;;23.45;67.19
32761;BME280;19126;47.472;7.850;2022-10-16T10:42:02;96843.72;;;23.23;67.15
32761;BME280;19126;47.472;7.850;2022-10-16T10:45:13;96840.53;;;23.48;66.47
32761;BME280;19126;47.472;7.850;2022-10-16T10:47:52;96837.00;;;23.20;68.94
32761;BME280;19126;47.472;7.850;2022-10-16T10:50:29;96835.63;;;23.18;68.75
32761;BME280;19126;47.472;7.850;2022-10-16T10:53:06;96835.69;;;23.45;67.07
32761;BME280;19126;47.472;7.850;2022-10-16T10:55:44;96836.41;;;23.35;66.22
32761;BME280;19126;47.472;7.850;2022-10-16T10:58:39;96837.75;;;23.38;65.25
32761;BME280;19126;47.472;7.850;2022-10-16T11:01:14;96838.56;;;23.16;61.95
32761;BME280;19126;47.472;7.850;2022-10-16T11:04:03;96836.91;;;23.32;67.67
32761;BME280;19126;47.472;7.850;2022-10-16T11:06:42;96827.81;;;23.16;65.54
32761;BME280;19126;47.472;7.850;2022-10-16T11:09:15;96833.88;;;23.06;67.02
32761;BME280;19126;47.472;7.850;2022-10-16T11:11:47;96824.16;;;23.00;68.90
32761;BME280;19126;47.472;7.850;2022-10-16T11:14:20;96824.84;;;22.90;67.04
32761;BME280;19126;47.472;7.850;2022-10-16T11:16:52;96830.75;;;22.70;64.21
32761;BME280;19126;47.472;7.850;2022-10-16T11:19:32;96827.19;;;22.64;68.10
32761;BME280;19126;47.472;7.850;2022-10-16T11:22:08;96824.38;;;22.54;68.55
32761;BME280;19126;47.472;7.850;2022-10-16T11:24:44;96826.81;;;22.56;71.99
32761;BME280;19126;47.472;7.850;2022-10-16T11:27:18;96816.75;;;22.63;71.14
32761;BME280;19126;47.472;7.850;2022-10-16T11:29:53;96816.25;;;22.49;69.86
32761;BME280;19126;47.472;7.850;2022-10-16T11:32:28;96813.56;;;22.32;71.28
32761;BME280;19126;47.472;7.850;2022-10-16T11:35:04;96807.72;;;22.35;69.42
32761;BME280;19126;47.472;7.850;2022-10-16T11:37:43;96808.72;;;22.46;71.31
32761;BME280;19126;47.472;7.850;2022-10-16T11:40:21;96804.44;;;22.45;67.77
32761;BME280;19126;47.472;7.850;2022-10-16T11:42:57;96801.50;;;22.46;71.72
32761;BME280;19126;47.472;7.850;2022-10-16T11:45:36;96798.09;;;22.51;69.29
32761;BME280;19126;47.472;7.850;2022-10-16T11:48:18;96792.22;;;22.37;68.33
32761;BME280;19126;47.472;7.850;2022-10-16T11:50:52;96790.28;;;22.49;70.42
32761;BME280;19126;47.472;7.850;2022-10-16T11:53:35;96786.09;;;22.53;68.41
32761;BME280;19126;47.472;7.850;2022-10-16T11:56:06;96787.09;;;22.69;68.50
32761;BME280;19126;47.472;7.850;2022-10-16T11:58:37;96788.22;;;22.74;68.70
32761;BME280;19126;47.472;7.850;2022-10-16T12:01:18;96785.22;;;22.70;69.15
32761;BME280;19126;47.472;7.850;2022-10-16T12:04:00;96777.44;;;22.68;68.71
32761;BME280;19126;47.472;7.850;2022-10-16T12:06:35;96776.56;;;22.63;70.62
32761;BME280;19126;47.472;7.850;2022-10-16T12:09:08;96785.16;;;22.65;70.15
32761;BME280;19126;47.472;7.850;2022-10-16T12:11:41;96784.41;;;22.69;70.56
32761;BME280;19126;47.472;7.850;2022-10-16T12:14:32;96781.66;;;22.64;66.75
32761;BME280;19126;47.472;7.850;2022-10-16T12:17:03;96781.44;;;22.88;73.42
32761;BME280;19126;47.472;7.850;2022-10-16T12:19:32;96786.97;;;23.04;69.34
32761;BME280;19126;47.472;7.850;2022-10-16T12:22:01;96787.69;;;23.21;68.27
32761;BME280;19126;47.472;7.850;2022-10-16T12:24:37;96780.78;;;23.25;63.41
32761;BME280;19126;47.472;7.850;2022-10-16T12:27:23;96783.06;;;23.39;60.27
32761;BME280;19126;47.472;7.850;2022-10-16T12:29:56;96778.69;;;23.55;62.22
32761;BME280;19126;47.472;7.850;2022-10-16T12:32:30;96775.22;;;23.60;58.05
32761;BME280;19126;47.472;7.850;2022-10-16T12:34:59;96768.78;;;23.61;58.98
32761;BME280;19126;47.472;7.850;2022-10-16T12:37:31;96769.88;;;23.60;57.52
32761;BME280;19126;47.472;7.850;2022-10-16T12:40:14;96766.63;;;23.58;56.19
32761;BME280;19126;47.472;7.850;2022-10-16T12:42:43;96767.72;;;23.62;57.33
32761;BME280;19126;47.472;7.850;2022-10-16T12:45:29;96765.84;;;23.57;57.63
32761;BME280;19126;47.472;7.850;2022-10-16T12:47:57;96775.53;;;23.36;57.07
32761;BME280;19126;47.472;7.850;2022-10-16T12:50:30;96769.16;;;23.42;58.45
32761;BME280;19126;47.472;7.850;2022-10-16T12:52:58;96765.38;;;23.38;56.22
32761;BME280;19126;47.472;7.850;2022-10-16T12:55:42;96771.00;;;23.36;57.67
32761;BME280;19126;47.472;7.850;2022-10-16T12:58:48;96766.69;;;23.35;57.77
32761;BME280;19126;47.472;7.850;2022-10-16T13:01:41;96756.69;;;23.25;59.50
32761;BME280;19126;47.472;7.850;2022-10-16T13:07:43;96762.78;;;23.21;59.83
32761;BME280;19126;47.472;7.850;2022-10-16T13:10:23;96761.94;;;23.20;62.05
32761;BME280;19126;47.472;7.850;2022-10-16T13:13:21;96765.41;;;23.16;61.40
32761;BME280;19126;47.472;7.850;2022-10-16T13:16:05;96759.47;;;23.13;59.35
32761;BME280;19126;47.472;7.850;2022-10-16T13:18:44;96767.03;;;23.17;60.55
32761;BME280;19126;47.472;7.850;2022-10-16T13:21:30;96762.97;;;23.14;60.70
32761;BME280;19126;47.472;7.850;2022-10-16T13:24:10;96761.84;;;23.10;61.39
32761;BME280;19126;47.472;7.850;2022-10-16T13:26:46;96756.09;;;22.96;63.97
32761;BME280;19126;47.472;7.850;2022-10-16T13:29:19;96754.41;;;22.90;67.99
32761;BME280;19126;47.472;7.850;2022-10-16T13:31:47;96755.69;;;22.87;67.72